createdAt,value
2022-10-24T00:01:47.107Z,69.91
2022-10-24T00:04:16.943Z,69.95
2022-10-24T00:06:45.287Z,70.03
2022-10-24T00:09:14.201Z,69.83
2022-10-24T00:11:43.830Z,70.19
2022-10-24T00:14:12.304Z,70.24
2022-10-24T00:16:40.880Z,70.22
2022-10-24T00:19:09.196Z,70.33
2022-10-24T00:21:39.358Z,70.17
2022-10-24T00:24:08.335Z,70.32
2022-10-24T00:26:37.600Z,70.31
2022-10-24T00:29:06.407Z,70.29
2022-10-24T00:31:34.954Z,70.26
2022-10-24T00:34:03.958Z,70.28
2022-10-24T00:36:32.855Z,70.41
2022-10-24T00:39:02.917Z,70.21
2022-10-24T00:41:35.026Z,69.94
2022-10-24T00:44:22.204Z,69.94
2022-10-24T00:46:55.758Z,70.19
2022-10-24T00:49:27.720Z,70.10
2022-10-24T00:52:00.179Z,70.23
2022-10-24T00:54:30.254Z,70.32
2022-10-24T00:57:06.471Z,70.20
2022-10-24T00:59:36.411Z,70.15
2022-10-24T01:02:05.776Z,70.30
2022-10-24T01:04:34.264Z,70.41
2022-10-24T01:07:18.003Z,70.09
2022-10-24T01:10:14.999Z,70.25
2022-10-24T01:12:52.518Z,70.22
2022-10-24T01:15:25.256Z,70.36
2022-10-24T01:18:00.490Z,70.42
2022-10-24T01:20:46.491Z,70.23
2022-10-24T01:23:45.469Z,70.38
2022-10-24T01:26:44.768Z,70.42
2022-10-24T01:29:21.429Z,70.43
2022-10-24T01:31:55.742Z,70.37
2022-10-24T01:34:29.395Z,70.35
2022-10-24T01:37:14.565Z,70.87
2022-10-24T01:39:49.214Z,70.68
2022-10-24T01:42:22.617Z,70.63
2022-10-24T01:44:53.239Z,70.57
2022-10-24T01:47:26.556Z,70.32
2022-10-24T01:50:02.204Z,70.48
2022-10-24T01:52:36.109Z,70.27
2022-10-24T01:55:05.950Z,70.47
2022-10-24T01:57:35.584Z,70.50
2022-10-24T02:00:06.172Z,70.40
2022-10-24T02:02:40.200Z,70.50
2022-10-24T02:05:15.852Z,70.51
2022-10-24T02:07:47.356Z,70.70
2022-10-24T02:10:18.445Z,70.73
2022-10-24T02:12:50.788Z,70.55
2022-10-24T02:15:23.563Z,70.74
2022-10-24T02:17:54.726Z,70.59
2022-10-24T02:20:30.406Z,70.44
2022-10-24T02:23:04.700Z,70.38
2022-10-24T02:25:36.839Z,70.36
2022-10-24T02:28:09.714Z,70.29
2022-10-24T02:30:43.727Z,70.28
2022-10-24T02:33:14.956Z,70.19
2022-10-24T02:35:46.331Z,70.12
2022-10-24T02:38:19.440Z,70.01
2022-10-24T02:40:49.787Z,69.91
2022-10-24T02:43:20.596Z,69.73
2022-10-24T02:45:50.055Z,69.87
2022-10-24T02:48:25.042Z,69.77
2022-10-24T02:50:53.759Z,69.67
2022-10-24T02:53:25.825Z,69.69
2022-10-24T02:55:54.495Z,69.81
2022-10-24T02:58:23.207Z,69.88
2022-10-24T03:00:51.575Z,69.76
2022-10-24T03:03:22.594Z,69.77
2022-10-24T03:05:50.994Z,69.78
2022-10-24T03:08:19.413Z,70.01
2022-10-24T03:10:48.265Z,69.92
2022-10-24T03:13:16.630Z,70.08
2022-10-24T03:15:45.122Z,70.00
2022-10-24T03:18:13.455Z,69.98
2022-10-24T03:20:43.348Z,70.08
2022-10-24T03:23:12.034Z,70.18
2022-10-24T03:25:40.528Z,70.10
2022-10-24T03:28:09.721Z,70.26
2022-10-24T03:30:38.147Z,70.43
2022-10-24T03:33:06.558Z,70.34
2022-10-24T03:35:34.929Z,70.69
2022-10-24T03:38:04.847Z,70.77
2022-10-24T03:40:33.650Z,70.88
2022-10-24T03:43:02.291Z,70.81
2022-10-24T03:45:30.638Z,70.74
2022-10-24T03:47:58.980Z,70.57
2022-10-24T03:50:27.438Z,70.60
2022-10-24T03:52:55.775Z,70.38
2022-10-24T03:55:25.576Z,70.58
2022-10-24T03:57:54.106Z,70.83
2022-10-24T04:00:23.084Z,70.48
2022-10-24T04:02:51.935Z,70.26
2022-10-24T04:05:20.515Z,70.27
2022-10-24T04:07:48.984Z,70.42
2022-10-24T04:10:17.340Z,70.26
2022-10-24T04:12:47.124Z,70.36
2022-10-24T04:15:15.526Z,70.42
2022-10-24T04:17:44.620Z,70.33
2022-10-24T04:20:13.807Z,70.54
2022-10-24T04:22:42.347Z,70.48
2022-10-24T04:25:11.483Z,70.47
2022-10-24T04:27:40.921Z,70.57
2022-10-24T04:30:16.546Z,70.38
2022-10-24T04:32:45.932Z,70.49
2022-10-24T04:35:15.227Z,70.50
2022-10-24T04:37:44.095Z,70.53
2022-10-24T04:40:12.959Z,70.53
2022-10-24T04:42:41.439Z,70.39
2022-10-24T04:45:12.638Z,70.62
2022-10-24T04:47:40.971Z,70.53
2022-10-24T04:50:10.364Z,70.81
2022-10-24T04:52:38.723Z,70.56
2022-10-24T04:55:07.719Z,70.84
2022-10-24T04:57:36.283Z,70.90
2022-10-24T05:00:05.670Z,70.96
2022-10-24T05:02:35.427Z,70.97
2022-10-24T05:05:03.915Z,71.26
2022-10-24T05:07:32.359Z,71.31
2022-10-24T05:10:00.715Z,71.17
2022-10-24T05:12:29.076Z,70.87
2022-10-24T05:14:57.534Z,70.96
2022-10-24T05:17:25.916Z,71.05
2022-10-24T05:19:55.676Z,70.92
2022-10-24T05:22:24.172Z,70.98
2022-10-24T05:24:53.288Z,70.94
2022-10-24T05:27:25.120Z,70.88
2022-10-24T05:29:53.975Z,70.67
2022-10-24T05:32:24.148Z,70.66
2022-10-24T05:34:52.615Z,70.84
2022-10-24T05:37:22.527Z,70.72
2022-10-24T05:39:50.959Z,70.84
2022-10-24T05:42:19.734Z,70.45
2022-10-24T05:44:48.121Z,70.69
2022-10-24T05:47:16.774Z,70.73
2022-10-24T05:49:45.406Z,70.57
2022-10-24T05:52:13.999Z,70.33
2022-10-24T05:54:55.104Z,70.18
2022-10-24T05:57:31.228Z,70.33
2022-10-24T05:59:59.628Z,70.20
2022-10-24T06:02:28.574Z,70.09
2022-10-24T06:04:59.053Z,70.27
2022-10-24T06:07:27.678Z,70.37
2022-10-24T06:09:57.585Z,70.24
2022-10-24T06:12:26.345Z,70.12
2022-10-24T06:14:57.836Z,70.24
2022-10-24T06:17:26.427Z,70.24
2022-10-24T06:19:54.814Z,70.15
2022-10-24T06:22:25.414Z,70.01
2022-10-24T06:24:53.851Z,69.92
2022-10-24T06:27:23.907Z,69.86
2022-10-24T06:29:52.507Z,69.66
2022-10-24T06:32:20.838Z,69.60
2022-10-24T06:34:49.223Z,70.38
2022-10-24T06:37:17.903Z,70.95
2022-10-24T06:39:46.384Z,70.36
2022-10-24T06:42:14.858Z,70.44
2022-10-24T06:44:44.790Z,70.76
2022-10-24T06:47:13.499Z,70.71
2022-10-24T06:49:42.091Z,71.04
2022-10-24T06:52:10.524Z,71.05
2022-10-24T06:54:39.270Z,71.24
2022-10-24T06:57:07.686Z,71.21
2022-10-24T06:59:36.144Z,71.04
2022-10-24T07:02:06.398Z,70.75
2022-10-24T07:04:34.966Z,70.78
2022-10-24T07:07:03.323Z,71.06
2022-10-24T07:09:31.907Z,70.93
2022-10-24T07:12:00.660Z,70.88
2022-10-24T07:14:28.980Z,70.95
2022-10-24T07:16:58.498Z,71.00
2022-10-24T07:19:28.359Z,71.09
2022-10-24T07:21:57.119Z,71.08
2022-10-24T07:24:25.815Z,71.13
2022-10-24T07:26:54.222Z,70.87
2022-10-24T07:29:22.606Z,70.63
2022-10-24T07:31:50.875Z,70.42
2022-10-24T07:34:19.677Z,70.54
2022-10-24T07:36:49.656Z,70.41
2022-10-24T07:39:18.022Z,70.60
2022-10-24T07:41:46.339Z,70.16
2022-10-24T07:44:14.960Z,70.00
2022-10-24T07:46:44.139Z,70.33
2022-10-24T07:49:12.555Z,70.40
2022-10-24T07:51:42.499Z,70.18
2022-10-24T07:54:12.398Z,70.32
2022-10-24T07:56:41.083Z,70.09
2022-10-24T07:59:23.777Z,70.00
2022-10-24T08:01:58.008Z,69.96
2022-10-24T08:04:26.400Z,69.92
2022-10-24T08:06:54.676Z,69.82
2022-10-24T08:09:26.780Z,69.89
2022-10-24T08:11:55.182Z,69.52
2022-10-24T08:14:23.691Z,69.22
2022-10-24T08:16:52.067Z,69.39
2022-10-24T08:19:20.746Z,69.04
2022-10-24T08:21:50.495Z,69.18
2022-10-24T08:24:18.887Z,69.31
2022-10-24T08:26:49.035Z,69.37
2022-10-24T08:29:22.444Z,68.96
2022-10-24T08:31:51.719Z,69.27
2022-10-24T08:34:20.314Z,69.32
2022-10-24T08:36:50.795Z,69.30
2022-10-24T08:39:19.986Z,69.37
2022-10-24T08:41:55.552Z,69.21
2022-10-24T08:44:29.704Z,68.82
2022-10-24T08:47:03.998Z,68.44
2022-10-24T08:49:40.012Z,68.29
2022-10-24T08:52:18.975Z,68.28
2022-10-24T08:54:47.936Z,68.60
2022-10-24T08:57:24.132Z,68.38
2022-10-24T08:59:55.089Z,68.46
2022-10-24T09:02:27.975Z,68.40
2022-10-24T09:05:00.335Z,68.62
2022-10-24T09:07:29.101Z,68.38
2022-10-24T09:10:07.064Z,67.96
2022-10-24T09:12:37.553Z,68.18
2022-10-24T09:15:15.386Z,68.07
2022-10-24T09:17:44.395Z,67.94
2022-10-24T09:20:25.804Z,67.66
2022-10-24T09:22:54.938Z,67.76
2022-10-24T09:25:25.871Z,67.71
2022-10-24T09:27:55.662Z,67.55
2022-10-24T09:30:30.075Z,67.60
2022-10-24T09:33:05.852Z,67.45
2022-10-24T09:35:35.552Z,67.54
2022-10-24T09:38:32.106Z,67.19
2022-10-24T09:41:02.963Z,67.30
2022-10-24T09:43:39.005Z,66.95
2022-10-24T09:46:10.366Z,67.19
2022-10-24T09:48:51.007Z,66.93
2022-10-24T09:51:26.152Z,66.87
2022-10-24T09:54:07.916Z,66.78
2022-10-24T09:56:39.522Z,67.08
2022-10-24T09:59:41.671Z,66.84
2022-10-24T10:02:20.456Z,67.06
2022-10-24T10:04:51.077Z,67.17
2022-10-24T10:07:21.559Z,66.99
2022-10-24T10:09:56.434Z,66.62
2022-10-24T10:12:33.034Z,66.88
2022-10-24T10:15:04.006Z,66.84
2022-10-24T10:17:33.484Z,66.90
2022-10-24T10:20:01.898Z,67.05
2022-10-24T10:22:32.602Z,66.97
2022-10-24T10:25:02.011Z,66.94
2022-10-24T10:27:37.119Z,67.05
2022-10-24T10:30:22.767Z,66.80
2022-10-24T10:33:06.926Z,67.07
2022-10-24T10:35:43.766Z,67.00
2022-10-24T10:38:25.333Z,66.92
2022-10-24T10:41:03.740Z,66.29
2022-10-24T10:43:38.736Z,66.08
2022-10-24T10:46:18.574Z,65.85
2022-10-24T10:49:01.236Z,66.02
2022-10-24T10:51:40.090Z,65.76
2022-10-24T10:54:20.751Z,65.54
2022-10-24T10:56:53.612Z,65.65
2022-10-24T10:59:36.412Z,65.60
2022-10-24T11:02:26.708Z,65.79
2022-10-24T11:05:02.350Z,65.88
2022-10-24T11:07:42.285Z,65.44
2022-10-24T11:10:15.080Z,65.48
2022-10-24T11:12:45.366Z,65.39
2022-10-24T11:15:22.445Z,65.38
2022-10-24T11:17:56.780Z,65.46
2022-10-24T11:20:29.964Z,65.28
2022-10-24T11:23:07.184Z,65.11
2022-10-24T11:25:40.632Z,65.12
2022-10-24T11:28:17.362Z,65.30
2022-10-24T11:30:52.815Z,65.36
2022-10-24T11:33:25.490Z,65.09
2022-10-24T11:36:09.908Z,65.31
2022-10-24T11:38:44.913Z,65.03
2022-10-24T11:41:28.175Z,65.04
2022-10-24T11:44:00.493Z,65.43
2022-10-24T11:46:36.681Z,65.39
2022-10-24T11:49:14.762Z,65.33
2022-10-24T11:51:49.407Z,65.65
2022-10-24T11:54:23.039Z,65.50
2022-10-24T11:56:53.536Z,65.88
2022-10-24T11:59:24.561Z,65.97
2022-10-24T12:02:19.345Z,65.61
2022-10-24T12:05:22.623Z,65.55
2022-10-24T12:08:26.686Z,65.46
2022-10-24T12:11:09.722Z,65.58
2022-10-24T12:16:49.954Z,65.93
2022-10-24T12:19:21.527Z,65.76
2022-10-24T12:21:55.355Z,66.05
2022-10-24T12:24:30.401Z,65.54
2022-10-24T12:27:02.885Z,65.93
2022-10-24T12:29:33.912Z,66.05
2022-10-24T12:32:26.105Z,66.00
2022-10-24T12:35:28.879Z,65.80
2022-10-24T12:37:51.662Z,65.76
2022-10-24T12:40:49.382Z,65.22
2022-10-24T12:43:29.939Z,65.46
2022-10-24T12:46:01.715Z,65.18
2022-10-24T12:48:33.480Z,65.10
2022-10-24T12:51:12.360Z,65.33
2022-10-24T12:54:02.847Z,65.45
2022-10-24T12:56:31.949Z,65.78
2022-10-24T12:59:03.104Z,65.71
2022-10-24T13:01:35.045Z,65.36
2022-10-24T13:04:45.702Z,65.51
2022-10-24T13:07:52.650Z,65.66
2022-10-24T13:10:38.177Z,65.40
2022-10-24T13:13:38.852Z,65.06
2022-10-24T13:16:17.980Z,65.47
2022-10-24T13:18:57.682Z,65.52
2022-10-24T13:21:31.254Z,64.88
2022-10-24T13:24:12.153Z,65.51
2022-10-24T13:26:44.388Z,65.55
2022-10-24T13:29:15.047Z,65.47
2022-10-24T13:31:51.036Z,65.49
2022-10-24T13:34:25.606Z,65.40
2022-10-24T13:37:02.298Z,65.56
2022-10-24T13:39:38.719Z,65.50
2022-10-24T13:42:29.110Z,65.19
2022-10-24T13:45:03.471Z,64.96
2022-10-24T13:47:35.843Z,65.31
2022-10-24T13:50:08.445Z,65.08
2022-10-24T13:52:49.102Z,65.08
2022-10-24T13:55:26.588Z,64.50
2022-10-24T13:58:01.646Z,64.79
2022-10-24T14:00:33.632Z,64.73
2022-10-24T14:03:04.689Z,64.82
2022-10-24T14:05:37.631Z,64.81
2022-10-24T14:08:09.714Z,65.01
2022-10-24T14:10:39.711Z,64.72
2022-10-24T14:13:17.623Z,64.59
2022-10-24T14:15:50.099Z,64.49
2022-10-24T14:18:18.781Z,63.85
2022-10-24T14:20:54.472Z,64.19
2022-10-24T14:23:28.278Z,64.51
2022-10-24T14:25:59.853Z,64.60
2022-10-24T14:28:34.418Z,64.16
2022-10-24T14:31:05.437Z,64.49
2022-10-24T14:33:43.155Z,64.74
2022-10-24T14:36:12.617Z,64.76
2022-10-24T14:38:41.830Z,65.12
2022-10-24T14:41:11.458Z,65.28
2022-10-24T14:43:44.308Z,64.80
2022-10-24T14:46:33.910Z,64.93
2022-10-24T14:49:24.384Z,64.96
2022-10-24T14:51:55.268Z,65.34
2022-10-24T14:54:26.438Z,64.79
2022-10-24T14:56:55.878Z,65.01
2022-10-24T14:59:29.810Z,65.12
2022-10-24T15:01:59.685Z,65.16
2022-10-24T15:04:37.480Z,64.92
2022-10-24T15:07:16.526Z,64.83
2022-10-24T15:09:56.399Z,65.00
2022-10-24T15:12:32.783Z,65.08
2022-10-24T15:15:22.795Z,64.82
2022-10-24T15:17:52.257Z,64.93
2022-10-24T15:20:23.379Z,64.79
2022-10-24T15:22:53.431Z,64.85
2022-10-24T15:25:24.822Z,64.89
2022-10-24T15:27:59.501Z,64.92
2022-10-24T15:30:32.227Z,65.18
2022-10-24T15:33:02.898Z,65.12
2022-10-24T15:35:35.183Z,65.13
2022-10-24T15:38:06.140Z,65.21
2022-10-24T15:40:36.274Z,65.30
2022-10-24T15:43:04.667Z,65.44
2022-10-24T15:45:34.714Z,65.53
2022-10-24T15:48:03.114Z,65.52
2022-10-24T15:50:31.879Z,65.26
2022-10-24T15:53:03.496Z,65.22
2022-10-24T15:55:33.143Z,64.97
2022-10-24T15:58:03.281Z,65.34
2022-10-24T16:00:31.824Z,65.17
2022-10-24T16:03:04.686Z,65.39
2022-10-24T16:05:38.131Z,65.51
2022-10-24T16:08:07.027Z,65.66
2022-10-24T16:10:37.118Z,65.81
2022-10-24T16:13:05.834Z,65.87
2022-10-24T16:15:37.399Z,65.91
2022-10-24T16:18:07.548Z,65.76
2022-10-24T16:20:36.520Z,65.88
2022-10-24T16:23:05.995Z,65.87
2022-10-24T16:25:36.608Z,65.89
2022-10-24T16:28:06.338Z,66.19
2022-10-24T16:30:37.460Z,66.17
2022-10-24T16:33:07.586Z,66.12
2022-10-24T16:35:39.174Z,66.22
2022-10-24T16:38:09.237Z,66.16
2022-10-24T16:40:42.699Z,66.17
2022-10-24T16:43:12.721Z,66.27
2022-10-24T16:45:41.420Z,66.14
2022-10-24T16:48:12.083Z,66.28
2022-10-24T16:50:46.538Z,66.38
2022-10-24T16:53:18.494Z,66.47
2022-10-24T16:55:49.747Z,66.53
2022-10-24T16:58:18.710Z,66.47
2022-10-24T17:00:47.935Z,66.38
2022-10-24T17:03:17.923Z,66.21
2022-10-24T17:05:49.443Z,66.23
2022-10-24T17:08:17.922Z,66.00
2022-10-24T17:10:47.203Z,66.18
2022-10-24T17:13:15.803Z,66.05
2022-10-24T17:15:44.687Z,65.97
2022-10-24T17:18:14.540Z,65.97
2022-10-24T17:20:45.928Z,66.00
2022-10-24T17:23:16.950Z,66.08
2022-10-24T17:25:47.172Z,66.03
2022-10-24T17:28:17.291Z,66.01
2022-10-24T17:30:45.883Z,65.99
2022-10-24T17:33:14.914Z,65.98
2022-10-24T17:35:50.240Z,66.21
2022-10-24T17:38:34.795Z,65.88
2022-10-24T17:41:12.905Z,65.88
2022-10-24T17:43:41.854Z,65.89
2022-10-24T17:46:15.502Z,65.68
2022-10-24T17:48:43.954Z,66.02
2022-10-24T17:51:15.918Z,65.97
2022-10-24T17:53:44.268Z,65.83
2022-10-24T17:56:14.174Z,65.77
2022-10-24T17:58:42.771Z,65.85
2022-10-24T18:01:12.875Z,65.67
2022-10-24T18:03:44.669Z,65.87
2022-10-24T18:06:16.180Z,65.88
2022-10-24T18:08:44.864Z,65.68
2022-10-24T18:11:14.461Z,65.80
2022-10-24T18:13:43.433Z,65.96
2022-10-24T18:16:13.046Z,65.86
2022-10-24T18:18:42.060Z,65.82
2022-10-24T18:21:11.728Z,65.91
2022-10-24T18:23:41.798Z,65.92
2022-10-24T18:26:11.891Z,65.99
2022-10-24T18:28:40.968Z,66.12
2022-10-24T18:31:11.795Z,65.92
2022-10-24T18:33:40.960Z,66.02
2022-10-24T18:36:11.231Z,66.08
2022-10-24T18:38:42.132Z,66.23
2022-10-24T18:41:35.418Z,66.10
2022-10-24T18:44:14.254Z,66.45
2022-10-24T18:46:43.999Z,66.21
2022-10-24T18:49:12.956Z,66.06
2022-10-24T18:51:47.323Z,65.78
2022-10-24T18:56:49.554Z,65.73
2022-10-24T18:59:19.834Z,65.76
2022-10-24T19:01:55.311Z,65.61
2022-10-24T19:04:27.175Z,65.79
2022-10-24T19:06:58.951Z,65.66
2022-10-24T19:09:28.969Z,65.72
2022-10-24T19:11:59.117Z,65.72
2022-10-24T19:14:29.047Z,65.72
2022-10-24T19:16:59.883Z,65.57
2022-10-24T19:22:03.326Z,65.69
2022-10-24T19:24:35.341Z,65.48
2022-10-24T19:27:05.299Z,65.27
2022-10-24T19:29:34.689Z,65.24
2022-10-24T19:32:04.500Z,65.24
2022-10-24T19:34:35.426Z,65.41
2022-10-24T19:37:05.443Z,65.53
2022-10-24T19:39:38.061Z,64.89
2022-10-24T19:42:07.836Z,65.33
2022-10-24T19:44:37.509Z,65.36
2022-10-24T19:47:07.509Z,65.26
2022-10-24T19:49:37.738Z,65.37
2022-10-24T19:52:07.675Z,65.37
2022-10-24T19:54:40.570Z,65.18
2022-10-24T19:57:09.130Z,65.04
2022-10-24T19:59:37.647Z,65.17
2022-10-24T20:02:06.661Z,65.08
2022-10-24T20:04:40.216Z,65.20
2022-10-24T20:07:09.278Z,65.54
2022-10-24T20:09:39.113Z,65.31
2022-10-24T20:12:08.108Z,65.30
2022-10-24T20:14:36.723Z,65.29
2022-10-24T20:17:05.088Z,65.26
2022-10-24T20:19:33.536Z,65.21
2022-10-24T20:22:02.615Z,65.30
2022-10-24T20:24:31.668Z,65.26
2022-10-24T20:27:01.542Z,65.04
2022-10-24T20:29:30.058Z,65.09
2022-10-24T20:31:58.384Z,65.32
2022-10-24T20:34:26.850Z,64.96
2022-10-24T20:36:55.151Z,65.02
2022-10-24T20:39:23.499Z,65.07
2022-10-24T20:41:54.070Z,65.14
2022-10-24T20:44:24.355Z,65.27
2022-10-24T20:46:55.488Z,65.36
2022-10-24T20:49:24.242Z,65.40
2022-10-24T20:51:53.081Z,65.40
2022-10-24T20:54:21.808Z,65.38
2022-10-24T20:56:50.223Z,65.39
2022-10-24T20:59:18.917Z,65.37
2022-10-24T21:01:48.795Z,65.28
2022-10-24T21:04:20.646Z,65.13
2022-10-24T21:06:50.153Z,65.29
2022-10-24T21:09:18.543Z,65.38
2022-10-24T21:11:46.956Z,65.25
2022-10-24T21:14:16.431Z,65.31
2022-10-24T21:16:44.731Z,65.34
2022-10-24T21:19:14.813Z,65.20
2022-10-24T21:21:43.735Z,65.10
2022-10-24T21:24:16.323Z,64.57
2022-10-24T21:26:44.951Z,64.70
2022-10-24T21:29:33.359Z,64.64
2022-10-24T21:32:01.708Z,64.66
2022-10-24T21:34:34.428Z,64.69
2022-10-24T21:37:03.974Z,64.87
2022-10-24T21:39:32.733Z,64.70
2022-10-24T21:42:00.994Z,64.68
2022-10-24T21:44:29.459Z,64.70
2022-10-24T21:46:57.825Z,64.41
2022-10-24T21:49:26.782Z,64.32
2022-10-24T21:51:56.550Z,64.54
2022-10-24T21:54:26.562Z,64.37
2022-10-24T21:56:55.048Z,64.17
2022-10-24T21:59:23.946Z,63.94
2022-10-24T22:01:53.714Z,63.00
2022-10-24T22:04:22.270Z,63.25
2022-10-24T22:06:50.684Z,63.17
2022-10-24T22:09:23.892Z,63.12
2022-10-24T22:11:54.715Z,63.41
2022-10-24T22:14:23.282Z,63.49
2022-10-24T22:16:51.943Z,63.15
2022-10-24T22:19:20.469Z,62.68
2022-10-24T22:21:50.988Z,63.22
2022-10-24T22:24:23.288Z,63.52
2022-10-24T22:26:52.438Z,63.59
2022-10-24T22:29:24.739Z,63.60
2022-10-24T22:31:54.664Z,63.80
2022-10-24T22:34:26.057Z,63.82
2022-10-24T22:37:05.575Z,63.90
2022-10-24T22:39:36.175Z,63.74
2022-10-24T22:42:06.503Z,63.61
2022-10-24T22:44:35.816Z,63.47
2022-10-24T22:47:22.843Z,63.87
2022-10-24T22:50:02.695Z,63.94
2022-10-24T22:52:31.797Z,63.79
2022-10-24T22:55:04.011Z,63.47
2022-10-24T23:00:08.023Z,64.07
2022-10-24T23:02:42.203Z,64.04
2022-10-24T23:05:20.760Z,63.87
2022-10-24T23:07:53.158Z,64.03
2022-10-24T23:10:26.129Z,63.91
2022-10-24T23:12:55.071Z,63.95
2022-10-24T23:15:24.686Z,64.06
2022-10-24T23:17:53.603Z,64.28
2022-10-24T23:20:33.268Z,64.11
2022-10-24T23:23:16.104Z,64.21
2022-10-24T23:25:52.404Z,63.85
2022-10-24T23:28:25.679Z,64.32
2022-10-24T23:30:54.636Z,64.64
2022-10-24T23:33:27.523Z,64.56
2022-10-24T23:35:59.964Z,64.15
2022-10-24T23:38:29.247Z,64.08
2022-10-24T23:40:59.805Z,64.79
2022-10-24T23:43:28.863Z,64.78
2022-10-24T23:46:00.676Z,65.03
2022-10-24T23:48:44.451Z,65.24
2022-10-24T23:51:16.762Z,65.36
2022-10-24T23:53:53.133Z,65.22
2022-10-24T23:56:24.658Z,64.72
2022-10-24T23:58:53.323Z,64.75
